Terminal Aerodrome Forecast
Issued by NWS Memphis, TN

Home | Current Version | Previous Version | Text Only | Print | Product List | Glossary On
Versions: 1 2 3 4 5 6 7 8 9 10 11 12 13 14 15 16 17 18
133
FTUS44 KMEG 260712 AAB
TAFJBR
TAF AMD
KJBR 260712Z 2607/2706 VRB05KT 3SM -RA BR SCT015 OVC025
     FM260900 03005KT 4SM -RA BR FEW010 OVC015
     FM261600 01010KT P6SM VCSH BKN015 OVC035
     FM261800 36008KT P6SM OVC015
     FM262100 01007KT P6SM BKN050
     FM270500 29002KT P6SM SCT250=

USA.gov is the U.S. government's official web portal to all federal, state and local government web resources and services.